createdAt,value
2017-11-25T00:00:56.777Z,65.53
2017-11-25T00:02:09.021Z,65.24
2017-11-25T00:03:21.676Z,66.2
2017-11-25T00:04:34.404Z,65.91
2017-11-25T00:05:47.109Z,66.2
2017-11-25T00:07:16.090Z,65.91
2017-11-25T00:08:28.857Z,65.91
2017-11-25T00:09:41.552Z,65.72
2017-11-25T00:10:53.316Z,66.3
2017-11-25T00:12:05.540Z,66.4
2017-11-25T00:13:18.181Z,67.17
2017-11-25T00:14:30.929Z,67.17
2017-11-25T00:15:43.597Z,67.27
2017-11-25T00:16:56.275Z,68.04
2017-11-25T00:18:09.021Z,66.85
2017-11-25T00:19:21.739Z,67.04
2017-11-25T00:20:34.469Z,66.59
2017-11-25T00:21:47.153Z,66.69
2017-11-25T00:22:59.905Z,67.27
2017-11-25T00:24:12.538Z,67.17
2017-11-25T00:25:25.236Z,67.52
2017-11-25T00:26:37.972Z,67.17
2017-11-25T00:27:50.706Z,67.14
2017-11-25T00:29:03.383Z,66.08
2017-11-25T00:30:15.594Z,65.69
2017-11-25T00:31:28.307Z,65.69
2017-11-25T00:32:41.015Z,66.08
2017-11-25T00:33:53.643Z,67.14
2017-11-25T00:35:05.951Z,66.94
2017-11-25T00:36:18.231Z,66.94
2017-11-25T00:37:30.922Z,67.04
2017-11-25T00:38:43.131Z,67.71
2017-11-25T00:39:55.394Z,67.62
2017-11-25T00:41:08.109Z,66.75
2017-11-25T00:42:20.425Z,67.43
2017-11-25T00:43:33.189Z,67.62
2017-11-25T00:44:45.946Z,68.29
2017-11-25T00:45:57.751Z,67.81
2017-11-25T00:47:10.487Z,68.29
2017-11-25T00:48:23.182Z,68.29
2017-11-25T00:49:35.470Z,67.71
2017-11-25T00:50:48.579Z,68.19
2017-11-25T00:52:01.323Z,68.87
2017-11-25T00:53:13.576Z,69.07
2017-11-25T00:54:26.278Z,69.03
2017-11-25T00:55:39.023Z,69.26
2017-11-25T00:56:51.291Z,69.71
2017-11-25T00:58:03.548Z,69.26
2017-11-25T00:59:16.259Z,69.35
2017-11-25T01:00:28.969Z,69.9
2017-11-25T01:01:41.751Z,69.71
2017-11-25T01:02:54.492Z,70
2017-11-25T01:04:07.164Z,70
2017-11-25T01:05:19.465Z,69.8
2017-11-25T01:06:32.197Z,70.38
2017-11-25T01:07:44.490Z,70.38
2017-11-25T01:08:57.182Z,70.38
2017-11-25T01:10:09.888Z,71.54
2017-11-25T01:11:22.778Z,71.44
2017-11-25T01:12:36.291Z,71.83
2017-11-25T01:13:48.531Z,71.73
2017-11-25T01:15:01.291Z,71.44
2017-11-25T01:16:13.977Z,72.41
2017-11-25T01:17:26.644Z,72.6
2017-11-25T01:18:38.897Z,72.21
2017-11-25T01:19:51.602Z,72.12
2017-11-25T01:21:03.891Z,72.31
2017-11-25T01:22:16.712Z,72.21
2017-11-25T01:23:29.379Z,73.95
2017-11-25T01:24:42.084Z,74.62
2017-11-25T01:25:54.806Z,74.43
2017-11-25T01:27:07.554Z,74.01
2017-11-25T01:28:20.311Z,73.57
2017-11-25T01:29:33.041Z,73.62
2017-11-25T01:30:45.771Z,73.95
2017-11-25T01:31:58.073Z,73.75
2017-11-25T01:33:12.314Z,73.95
2017-11-25T01:34:24.631Z,74.24
2017-11-25T01:35:37.435Z,73.85
2017-11-25T01:36:49.702Z,74.05
2017-11-25T01:38:01.490Z,73.43
2017-11-25T01:39:14.199Z,73.82
2017-11-25T01:40:26.485Z,74.24
2017-11-25T01:41:39.159Z,74.01
2017-11-25T01:42:51.933Z,74.2
2017-11-25T01:44:04.696Z,74.68
2017-11-25T01:45:17.424Z,74.97
2017-11-25T01:46:30.209Z,74.97
2017-11-25T01:47:42.924Z,75.65
2017-11-25T01:48:55.649Z,76.32
2017-11-25T01:50:08.322Z,76.42
2017-11-25T01:51:21.014Z,77.28
2017-11-25T01:52:33.692Z,77.23
2017-11-25T01:53:47.777Z,77.48
2017-11-25T01:55:02.960Z,77.58
2017-11-25T01:56:15.622Z,77.67
2017-11-25T01:57:28.328Z,78.06
2017-11-25T01:58:40.987Z,77.86
2017-11-25T01:59:53.644Z,78.15
2017-11-25T02:01:05.853Z,78.15
2017-11-25T02:02:18.505Z,78.15
2017-11-25T02:03:31.170Z,78.34
2017-11-25T02:04:43.843Z,78.83
2017-11-25T02:05:59.850Z,79.41
2017-11-25T02:07:12.074Z,79.89
2017-11-25T02:08:24.714Z,79.5
2017-11-25T02:09:37.384Z,80.37
2017-11-25T02:10:50.048Z,81.04
2017-11-25T02:12:02.275Z,81.24
2017-11-25T02:13:14.937Z,81.24
2017-11-25T02:14:27.601Z,81.87
2017-11-25T02:15:40.296Z,81.48
2017-11-25T02:16:56.140Z,82.26
2017-11-25T02:18:08.799Z,81.58
2017-11-25T02:19:21.438Z,82.1
2017-11-25T02:20:34.101Z,81.91
2017-11-25T02:21:46.761Z,81.81
2017-11-25T02:22:58.972Z,82.59
2017-11-25T02:24:11.188Z,82.87
2017-11-25T02:25:23.838Z,82.87
2017-11-25T02:26:37.480Z,82.01
2017-11-25T02:27:50.474Z,81.91
2017-11-25T02:29:03.155Z,82.16
2017-11-25T02:30:15.827Z,81.77
2017-11-25T02:31:28.487Z,82.54
2017-11-25T02:32:41.159Z,83.51
2017-11-25T02:33:53.373Z,83.31
2017-11-25T02:35:05.612Z,83.61
2017-11-25T02:36:18.258Z,83.89
2017-11-25T02:37:31.077Z,83.61
2017-11-25T02:38:43.323Z,83.51
2017-11-25T02:39:55.991Z,83.99
2017-11-25T02:41:08.661Z,83.99
2017-11-25T02:42:20.853Z,83.8
2017-11-25T02:43:33.081Z,84.38
2017-11-25T02:44:45.735Z,84.18
2017-11-25T02:45:58.402Z,84.28
2017-11-25T02:47:11.082Z,84.28
2017-11-25T02:48:23.359Z,84.95
2017-11-25T02:49:36.281Z,84.18
2017-11-25T02:50:48.923Z,84.28
2017-11-25T02:52:01.159Z,84.32
2017-11-25T02:53:13.803Z,84.52
2017-11-25T02:54:26.463Z,84.52
2017-11-25T02:55:39.153Z,84.28
2017-11-25T02:56:51.376Z,84.42
2017-11-25T02:58:04.049Z,84.52
2017-11-25T02:59:16.785Z,84.61
2017-11-25T03:00:29.440Z,84.76
2017-11-25T03:01:42.125Z,84.61
2017-11-25T03:02:54.783Z,84.8
2017-11-25T03:04:07.434Z,84.99
2017-11-25T03:05:20.095Z,84.95
2017-11-25T03:06:32.752Z,85.24
2017-11-25T03:07:45.408Z,85.38
2017-11-25T03:08:58.073Z,85.14
2017-11-25T03:10:10.844Z,85.09
2017-11-25T03:11:23.602Z,85.86
2017-11-25T03:12:35.800Z,85.47
2017-11-25T03:13:48.481Z,85.86
2017-11-25T03:15:00.665Z,86.01
2017-11-25T03:16:12.868Z,86.4
2017-11-25T03:17:25.514Z,86.69
2017-11-25T03:18:38.158Z,87.17
2017-11-25T03:19:50.808Z,87.46
2017-11-25T03:21:03.468Z,88.23
2017-11-25T03:22:15.604Z,87.7
2017-11-25T03:23:28.227Z,87.84
2017-11-25T03:24:40.874Z,87.74
2017-11-25T03:25:53.086Z,88.13
2017-11-25T03:27:05.742Z,88.28
2017-11-25T03:28:18.378Z,88.18
2017-11-25T03:29:31.014Z,88.61
2017-11-25T03:30:43.657Z,88.71
2017-11-25T03:31:56.367Z,89.09
2017-11-25T03:33:08.580Z,89.29
2017-11-25T03:34:20.813Z,89.58
2017-11-25T03:35:33.556Z,89.19
2017-11-25T03:36:46.248Z,89.86
2017-11-25T03:37:58.959Z,89.96
2017-11-25T03:39:11.257Z,90.25
2017-11-25T03:40:23.953Z,90.25
2017-11-25T03:41:36.655Z,90.44
2017-11-25T03:42:49.318Z,90.64
2017-11-25T03:44:02.067Z,91.12
2017-11-25T03:45:14.830Z,90.92
2017-11-25T03:46:27.564Z,91.12
2017-11-25T03:47:40.325Z,91.21
2017-11-25T03:48:53.111Z,91.12
2017-11-25T03:50:05.370Z,91.31
2017-11-25T03:51:17.701Z,91.5
2017-11-25T03:52:30.430Z,91.89
2017-11-25T03:53:43.141Z,92.27
2017-11-25T03:54:55.923Z,92.61
2017-11-25T03:56:08.771Z,92.61
2017-11-25T03:57:21.472Z,93.57
2017-11-25T03:58:34.205Z,93.77
2017-11-25T03:59:46.449Z,94.15
2017-11-25T04:00:59.157Z,94.15
2017-11-25T04:02:11.450Z,95.4
2017-11-25T04:03:24.182Z,94.64
2017-11-25T04:04:36.962Z,95.02
2017-11-25T04:05:49.732Z,95.5
2017-11-25T04:07:02.033Z,95.98
2017-11-25T04:08:14.723Z,95.6
2017-11-25T04:09:27.434Z,95.89
2017-11-25T04:10:40.160Z,96.46
2017-11-25T04:11:52.954Z,95.69
2017-11-25T04:13:06.203Z,95.69
2017-11-25T04:14:20.066Z,96.27
2017-11-25T04:15:32.850Z,96.27
2017-11-25T04:16:45.639Z,96.66
2017-11-25T04:17:57.993Z,96.66
2017-11-25T04:19:10.794Z,96.85
2017-11-25T04:20:23.605Z,97.62
2017-11-25T04:21:35.932Z,98.39
2017-11-25T04:22:48.717Z,98.29
2017-11-25T04:24:01.816Z,98.68
2017-11-25T04:25:18.469Z,98.87
2017-11-25T04:26:31.234Z,99.4
2017-11-25T04:27:43.572Z,99.3
2017-11-25T04:28:56.449Z,99.78
2017-11-25T04:30:09.247Z,99.99
2017-11-25T04:31:22.042Z,99.99
2017-11-25T04:32:34.834Z,99.99
2017-11-25T04:33:47.637Z,99.99
2017-11-25T04:35:00.409Z,99.99
2017-11-25T04:36:13.191Z,99.99
2017-11-25T04:37:25.955Z,99.99
2017-11-25T04:38:38.276Z,99.99
2017-11-25T04:39:51.064Z,99.99
2017-11-25T04:41:03.829Z,99.99
2017-11-25T04:42:16.559Z,99.99
2017-11-25T04:43:28.807Z,99.99
2017-11-25T04:44:41.507Z,99.99
2017-11-25T04:45:54.208Z,99.99
2017-11-25T04:47:06.436Z,99.99
2017-11-25T04:48:19.163Z,99.99
2017-11-25T04:49:31.869Z,99.99
2017-11-25T04:50:44.700Z,99.99
2017-11-25T04:51:57.435Z,99.99
2017-11-25T04:53:10.201Z,99.99
2017-11-25T04:54:22.891Z,99.99
2017-11-25T04:55:35.142Z,99.99
2017-11-25T04:56:47.817Z,99.99
2017-11-25T04:58:00.557Z,99.99
2017-11-25T04:59:13.210Z,99.99
2017-11-25T05:00:25.506Z,99.99
2017-11-25T05:01:38.234Z,99.99
2017-11-25T05:02:50.885Z,99.99
2017-11-25T05:04:03.558Z,99.99
2017-11-25T05:05:16.275Z,99.99
2017-11-25T05:06:28.990Z,99.99
2017-11-25T05:07:41.660Z,99.99
2017-11-25T05:08:54.366Z,99.99
2017-11-25T05:10:07.053Z,99.99
2017-11-25T05:11:19.775Z,99.99
2017-11-25T05:12:32.128Z,99.99
2017-11-25T05:13:44.853Z,99.99
2017-11-25T05:14:57.507Z,99.99
2017-11-25T05:16:10.159Z,99.99
2017-11-25T05:17:22.778Z,99.99
2017-11-25T05:18:35.008Z,99.99
2017-11-25T05:19:47.671Z,99.99
2017-11-25T05:21:00.382Z,99.99
2017-11-25T05:22:13.091Z,99.99
2017-11-25T05:23:25.828Z,99.99
2017-11-25T05:24:38.549Z,99.99
2017-11-25T05:25:51.252Z,99.99
2017-11-25T05:27:03.957Z,99.99
2017-11-25T05:28:16.676Z,99.99
2017-11-25T05:29:29.363Z,99.99
2017-11-25T05:30:41.592Z,99.99
2017-11-25T05:31:54.353Z,99.99
2017-11-25T05:33:06.592Z,99.99
2017-11-25T05:34:19.372Z,99.99
2017-11-25T05:35:32.119Z,99.99
2017-11-25T05:36:44.836Z,99.99
2017-11-25T05:37:57.534Z,99.99
2017-11-25T05:39:10.227Z,99.99
2017-11-25T05:40:23.029Z,99.99
2017-11-25T05:41:35.743Z,99.99
2017-11-25T05:42:48.461Z,99.99
2017-11-25T05:44:00.688Z,99.99
2017-11-25T05:45:13.318Z,99.99
2017-11-25T05:46:26.027Z,99.99
2017-11-25T05:47:38.738Z,99.99
2017-11-25T05:48:50.974Z,99.99
2017-11-25T05:50:03.697Z,99.99
2017-11-25T05:51:16.048Z,99.99
2017-11-25T05:52:28.709Z,99.99
2017-11-25T05:53:41.361Z,99.99
2017-11-25T05:54:54.117Z,99.99
2017-11-25T05:56:06.789Z,99.99
2017-11-25T05:57:19.461Z,99.99
2017-11-25T05:58:32.155Z,99.99
2017-11-25T05:59:44.387Z,99.99
2017-11-25T06:00:56.652Z,99.99
2017-11-25T06:02:09.462Z,99.99
2017-11-25T06:03:21.704Z,99.99
2017-11-25T06:04:34.309Z,99.99
2017-11-25T06:05:46.999Z,99.99
2017-11-25T06:06:59.673Z,99.99
2017-11-25T06:08:11.899Z,99.99
2017-11-25T06:09:24.581Z,99.99
2017-11-25T06:10:36.843Z,99.99
2017-11-25T06:11:49.528Z,99.99
2017-11-25T06:13:02.213Z,99.99
2017-11-25T06:14:14.912Z,99.99
2017-11-25T06:15:27.577Z,99.99
2017-11-25T06:16:39.806Z,99.99
2017-11-25T06:17:51.990Z,99.99
2017-11-25T06:19:04.702Z,99.99
2017-11-25T06:20:16.928Z,99.99
2017-11-25T06:21:29.140Z,99.99
2017-11-25T06:22:40.948Z,99.99
2017-11-25T06:23:53.877Z,99.99
2017-11-25T06:25:06.082Z,99.99
2017-11-25T06:26:18.735Z,99.99
2017-11-25T06:27:31.427Z,99.99
2017-11-25T06:28:44.035Z,99.99
2017-11-25T06:29:56.681Z,99.99
2017-11-25T06:31:08.914Z,99.99
2017-11-25T06:32:21.158Z,99.99
2017-11-25T06:33:33.784Z,99.99
2017-11-25T06:34:47.026Z,99.99
2017-11-25T06:35:59.746Z,99.99
2017-11-25T06:37:12.082Z,99.99
2017-11-25T06:38:24.776Z,99.99
2017-11-25T06:39:37.569Z,99.99
2017-11-25T06:40:50.274Z,99.99
2017-11-25T06:42:02.992Z,99.99
2017-11-25T06:43:15.700Z,99.99
2017-11-25T06:44:28.381Z,99.99
2017-11-25T06:45:40.764Z,99.99
2017-11-25T06:46:52.982Z,99.99
2017-11-25T06:48:05.701Z,99.99
2017-11-25T06:49:17.538Z,99.99
2017-11-25T06:50:30.246Z,99.99
2017-11-25T06:51:42.493Z,99.99
2017-11-25T06:52:55.179Z,99.99
2017-11-25T06:54:07.914Z,99.99
2017-11-25T06:55:20.170Z,99.99
2017-11-25T06:56:32.853Z,99.99
2017-11-25T06:57:45.506Z,99.99
2017-11-25T06:58:58.224Z,99.99
2017-11-25T07:00:10.901Z,99.99
2017-11-25T07:01:22.832Z,99.99
2017-11-25T07:02:35.559Z,99.99
2017-11-25T07:03:47.777Z,99.99
2017-11-25T07:05:00.467Z,99.99
2017-11-25T07:06:12.323Z,99.99
2017-11-25T07:07:24.616Z,99.99
2017-11-25T07:08:36.881Z,99.99
2017-11-25T07:09:49.561Z,99.99
2017-11-25T07:11:02.316Z,99.99
2017-11-25T07:12:15.022Z,99.99
2017-11-25T07:13:27.237Z,99.99
2017-11-25T07:14:39.966Z,99.99
2017-11-25T07:15:52.573Z,99.99
2017-11-25T07:17:04.813Z,99.99
2017-11-25T07:18:17.592Z,99.99
2017-11-25T07:19:30.224Z,99.99
2017-11-25T07:20:42.901Z,99.99
2017-11-25T07:21:55.594Z,99.99
2017-11-25T07:23:07.809Z,99.99
2017-11-25T07:24:20.464Z,99.99
2017-11-25T07:25:33.089Z,99.99
2017-11-25T07:26:45.752Z,99.99
2017-11-25T07:27:58.401Z,99.99
2017-11-25T07:29:11.087Z,99.99
2017-11-25T07:30:23.749Z,99.99
2017-11-25T07:31:36.026Z,99.99
2017-11-25T07:32:48.688Z,99.99
2017-11-25T07:34:01.340Z,99.99
2017-11-25T07:35:13.955Z,99.99
2017-11-25T07:36:26.621Z,99.99
2017-11-25T07:37:38.832Z,99.99
2017-11-25T07:38:51.463Z,99.99
2017-11-25T07:40:04.154Z,99.99
2017-11-25T07:41:16.852Z,99.99
2017-11-25T07:42:29.077Z,99.99
2017-11-25T07:43:41.728Z,99.99
2017-11-25T07:44:54.361Z,99.99
2017-11-25T07:46:06.996Z,99.99
2017-11-25T07:47:19.220Z,99.99
2017-11-25T07:48:31.872Z,99.99
2017-11-25T07:49:44.584Z,99.99
2017-11-25T07:51:00.547Z,99.99
2017-11-25T07:52:12.971Z,99.99
2017-11-25T07:53:25.529Z,99.99
2017-11-25T07:54:37.640Z,99.99
2017-11-25T07:55:50.456Z,99.99
2017-11-25T07:57:03.204Z,99.99
2017-11-25T07:58:15.954Z,99.99
2017-11-25T07:59:28.719Z,99.99
2017-11-25T08:00:41.466Z,99.99
2017-11-25T08:01:53.751Z,99.99
2017-11-25T08:03:06.041Z,99.99
2017-11-25T08:04:18.777Z,99.99
2017-11-25T08:05:31.082Z,99.99
2017-11-25T08:06:43.488Z,99.99
2017-11-25T08:07:56.254Z,99.99
2017-11-25T08:09:08.530Z,99.99
2017-11-25T08:10:21.283Z,99.99
2017-11-25T08:11:34.021Z,99.99
2017-11-25T08:12:46.870Z,99.99
2017-11-25T08:13:59.605Z,99.99
2017-11-25T08:15:11.899Z,99.99
2017-11-25T08:16:24.185Z,99.99
2017-11-25T08:17:37.030Z,99.99
2017-11-25T08:18:49.358Z,99.99
2017-11-25T08:20:02.096Z,99.99
2017-11-25T08:21:14.837Z,99.99
2017-11-25T08:22:27.128Z,99.99
2017-11-25T08:23:39.416Z,99.99
2017-11-25T08:24:51.712Z,99.99
2017-11-25T08:26:04.452Z,99.99
2017-11-25T08:27:17.207Z,99.99
2017-11-25T08:28:29.960Z,99.99
2017-11-25T08:29:42.303Z,99.99
2017-11-25T08:30:55.051Z,99.99
2017-11-25T08:32:07.346Z,99.99
2017-11-25T08:33:19.189Z,99.99
2017-11-25T08:34:31.925Z,99.99
2017-11-25T08:35:44.214Z,99.99
2017-11-25T08:36:56.499Z,99.99
2017-11-25T08:38:09.246Z,99.99
2017-11-25T08:39:21.979Z,99.99
2017-11-25T08:40:33.818Z,99.99
2017-11-25T08:41:46.558Z,99.99
2017-11-25T08:42:58.847Z,99.99
2017-11-25T08:44:11.592Z,99.99
2017-11-25T08:45:23.875Z,99.99
2017-11-25T08:46:36.616Z,99.99
2017-11-25T08:47:49.360Z,99.99
2017-11-25T08:49:01.649Z,99.99
2017-11-25T08:50:14.511Z,99.99
2017-11-25T08:51:26.346Z,99.99
2017-11-25T08:52:38.640Z,99.99
2017-11-25T08:53:51.380Z,99.99
2017-11-25T08:55:04.136Z,99.99
2017-11-25T08:56:16.873Z,99.99
2017-11-25T08:57:29.618Z,99.99
2017-11-25T08:58:42.365Z,99.99
2017-11-25T08:59:54.655Z,99.99
2017-11-25T09:01:07.078Z,99.99
2017-11-25T09:02:19.835Z,99.99
2017-11-25T09:03:32.580Z,99.99
2017-11-25T09:04:45.327Z,99.99
2017-11-25T09:05:57.613Z,99.99
2017-11-25T09:07:10.373Z,99.99
2017-11-25T09:08:23.110Z,99.99
2017-11-25T09:09:35.849Z,99.99
2017-11-25T09:10:48.141Z,99.99
2017-11-25T09:12:00.895Z,99.99
2017-11-25T09:13:13.646Z,99.99
2017-11-25T09:14:26.394Z,99.99
2017-11-25T09:15:38.692Z,99.99
2017-11-25T09:16:51.433Z,99.99
2017-11-25T09:18:03.735Z,99.99
2017-11-25T09:19:16.489Z,99.99
2017-11-25T09:20:28.783Z,99.99
2017-11-25T09:21:41.535Z,99.99
2017-11-25T09:22:54.298Z,99.99
2017-11-25T09:24:07.065Z,99.99
2017-11-25T09:25:19.373Z,99.99
2017-11-25T09:26:32.139Z,99.99
2017-11-25T09:27:44.905Z,99.99
2017-11-25T09:28:57.664Z,99.99
2017-11-25T09:30:10.476Z,99.99
2017-11-25T09:31:23.238Z,99.99
2017-11-25T09:32:35.538Z,99.99
2017-11-25T09:33:48.320Z,99.99
2017-11-25T09:35:00.624Z,99.99
2017-11-25T09:36:13.391Z,99.99
2017-11-25T09:37:25.706Z,99.99
2017-11-25T09:38:38.468Z,99.99
2017-11-25T09:39:51.227Z,99.99
2017-11-25T09:41:03.982Z,99.99
2017-11-25T09:42:16.304Z,99.99
2017-11-25T09:43:29.071Z,99.99
2017-11-25T09:44:41.838Z,99.99
2017-11-25T09:45:54.614Z,99.99
2017-11-25T09:47:07.382Z,99.99
2017-11-25T09:48:20.144Z,99.99
2017-11-25T09:49:32.906Z,99.99
2017-11-25T09:50:45.212Z,99.99
2017-11-25T09:51:57.962Z,99.99
2017-11-25T09:53:10.750Z,99.99
2017-11-25T09:54:23.533Z,99.99
2017-11-25T09:55:36.398Z,99.99
2017-11-25T09:56:49.154Z,99.99
2017-11-25T09:58:01.471Z,99.99
2017-11-25T09:59:14.225Z,99.99
2017-11-25T10:00:26.979Z,99.99
2017-11-25T10:01:39.283Z,99.99
2017-11-25T10:02:52.034Z,99.99
2017-11-25T10:04:04.334Z,99.99
2017-11-25T10:05:17.079Z,99.99
2017-11-25T10:06:29.382Z,99.99
2017-11-25T10:07:42.141Z,99.99
2017-11-25T10:08:54.442Z,99.99
2017-11-25T10:10:07.183Z,99.99
2017-11-25T10:11:19.933Z,99.99
2017-11-25T10:12:32.225Z,99.99
2017-11-25T10:13:44.068Z,99.99
2017-11-25T10:14:56.373Z,99.99
2017-11-25T10:16:09.129Z,99.99
2017-11-25T10:17:21.877Z,99.99
2017-11-25T10:18:34.652Z,99.99
2017-11-25T10:19:46.965Z,99.99
2017-11-25T10:20:59.721Z,99.99
2017-11-25T10:22:12.477Z,99.99
2017-11-25T10:23:25.228Z,99.99
2017-11-25T10:24:37.988Z,99.99
2017-11-25T10:25:50.757Z,99.99
2017-11-25T10:27:03.518Z,99.99
2017-11-25T10:28:16.301Z,99.99
2017-11-25T10:29:29.047Z,99.99
2017-11-25T10:30:41.345Z,99.99
2017-11-25T10:31:53.651Z,99.99
2017-11-25T10:33:05.952Z,99.99
2017-11-25T10:34:18.708Z,99.99
2017-11-25T10:35:31.466Z,99.99
2017-11-25T10:36:44.222Z,99.99
2017-11-25T10:37:56.519Z,99.99
2017-11-25T10:39:08.825Z,99.99
2017-11-25T10:40:21.129Z,99.99
2017-11-25T10:41:33.875Z,99.99
2017-11-25T10:42:46.621Z,99.99
2017-11-25T10:43:59.369Z,99.99
2017-11-25T10:45:12.153Z,99.99
2017-11-25T10:46:24.917Z,99.99
2017-11-25T10:47:37.663Z,99.99
2017-11-25T10:48:50.408Z,99.99
2017-11-25T10:50:03.171Z,99.99
2017-11-25T10:51:15.932Z,99.99
2017-11-25T10:52:27.790Z,99.99
2017-11-25T10:53:40.093Z,99.99
2017-11-25T10:54:52.858Z,99.99
2017-11-25T10:56:05.160Z,99.79
2017-11-25T10:57:17.953Z,99.6
2017-11-25T10:58:30.709Z,98.97
2017-11-25T10:59:43.006Z,98.39
2017-11-25T11:00:55.336Z,97.42
2017-11-25T11:02:07.638Z,96.94
2017-11-25T11:03:19.934Z,96.94
2017-11-25T11:04:31.800Z,97.14
2017-11-25T11:05:44.565Z,97.04
2017-11-25T11:06:57.418Z,96.99
2017-11-25T11:08:10.176Z,96.99
2017-11-25T11:09:22.951Z,96.22
2017-11-25T11:10:35.714Z,95.45
2017-11-25T11:11:48.468Z,95.15
2017-11-25T11:13:01.239Z,95.93
2017-11-25T11:14:13.546Z,95.64
2017-11-25T11:15:26.296Z,94.82
2017-11-25T11:16:39.044Z,93.56
2017-11-25T11:17:51.807Z,93.95
2017-11-25T11:19:04.589Z,92.3
2017-11-25T11:20:17.346Z,93.46
2017-11-25T11:21:30.095Z,92.16
2017-11-25T11:22:42.394Z,92.64
2017-11-25T11:23:55.141Z,91.58
2017-11-25T11:25:07.925Z,91.58
2017-11-25T11:26:20.670Z,91.19
2017-11-25T11:27:32.978Z,90.65
2017-11-25T11:28:45.744Z,89.97
2017-11-25T11:29:58.056Z,89.49
2017-11-25T11:31:10.371Z,88.33
2017-11-25T11:32:22.674Z,88.91
2017-11-25T11:33:34.526Z,88.18
2017-11-25T11:34:47.309Z,86.63
2017-11-25T11:36:00.060Z,86.44
2017-11-25T11:37:12.817Z,86.05
2017-11-25T11:38:25.587Z,86.15
2017-11-25T11:39:38.347Z,85.8
2017-11-25T11:40:51.101Z,85.61
2017-11-25T11:42:03.403Z,84.74
2017-11-25T11:43:15.715Z,85.17
2017-11-25T11:44:28.011Z,84.58
2017-11-25T11:45:40.307Z,83.07
2017-11-25T11:46:53.117Z,80.36
2017-11-25T11:48:05.887Z,80.75
2017-11-25T11:49:18.654Z,81.13
2017-11-25T11:50:31.411Z,80.6
2017-11-25T11:51:44.170Z,80.98
2017-11-25T11:52:56.924Z,78.94
2017-11-25T11:54:09.671Z,78.99
2017-11-25T11:55:21.975Z,78.69
2017-11-25T11:56:34.276Z,75.34
2017-11-25T11:57:47.040Z,75.82
2017-11-25T11:58:59.803Z,75.88
2017-11-25T12:00:12.562Z,76.37
2017-11-25T12:01:24.870Z,75.72
2017-11-25T12:02:36.726Z,74.65
2017-11-25T12:03:49.036Z,73.72
2017-11-25T12:05:01.790Z,73.24
2017-11-25T12:06:14.556Z,73.33
2017-11-25T12:07:27.310Z,73.82
2017-11-25T12:08:40.068Z,72.78
2017-11-25T12:09:52.833Z,72.11
2017-11-25T12:11:05.612Z,71.13
2017-11-25T12:12:18.365Z,70.16
2017-11-25T12:13:31.119Z,70.39
2017-11-25T12:14:43.433Z,69.42
2017-11-25T12:15:56.180Z,69.45
2017-11-25T12:17:08.932Z,68.57
2017-11-25T12:18:21.691Z,69.39
2017-11-25T12:19:34.443Z,68.45
2017-11-25T12:20:47.208Z,66.02
2017-11-25T12:21:59.965Z,66.11
2017-11-25T12:23:12.753Z,65.72
2017-11-25T12:24:25.509Z,65.56
2017-11-25T12:25:38.278Z,65.63
2017-11-25T12:26:51.039Z,64.49
2017-11-25T12:28:02.917Z,64.87
2017-11-25T12:29:15.240Z,64.32
2017-11-25T12:30:28.005Z,64.42
2017-11-25T12:31:40.760Z,64.42
2017-11-25T12:32:53.069Z,63.18
2017-11-25T12:34:05.389Z,62.5
2017-11-25T12:35:18.157Z,62.89
2017-11-25T12:36:30.454Z,62.34
2017-11-25T12:37:43.264Z,61.85
2017-11-25T12:38:56.022Z,61.85
2017-11-25T12:40:08.319Z,60.71
2017-11-25T12:41:21.073Z,61.04
2017-11-25T12:42:33.830Z,58.79
2017-11-25T12:43:46.579Z,58.03
2017-11-25T12:44:59.326Z,56.2
2017-11-25T12:46:12.107Z,56.72
2017-11-25T12:47:24.854Z,57.28
2017-11-25T12:48:37.632Z,56.99
2017-11-25T12:49:50.398Z,57.28
2017-11-25T12:51:03.185Z,58.01
2017-11-25T12:52:15.948Z,59.79
2017-11-25T12:53:28.724Z,59.4
2017-11-25T12:54:41.488Z,58.23
2017-11-25T12:55:54.250Z,57.84
2017-11-25T12:57:07.021Z,58.65
2017-11-25T12:58:19.362Z,56.6
2017-11-25T12:59:31.223Z,55.52
2017-11-25T13:00:43.983Z,54.38
2017-11-25T13:01:56.753Z,55.45
2017-11-25T13:03:09.506Z,55.71
2017-11-25T13:04:22.270Z,55.91
2017-11-25T13:05:35.027Z,56.4
2017-11-25T13:06:47.797Z,56.62
2017-11-25T13:08:00.104Z,54.01
2017-11-25T13:09:12.857Z,54.01
2017-11-25T13:10:25.613Z,52.44
2017-11-25T13:11:37.929Z,51.49
2017-11-25T13:12:50.274Z,52.56
2017-11-25T13:14:03.055Z,52.86
2017-11-25T13:15:15.834Z,53.42
2017-11-25T13:16:28.606Z,53.62
2017-11-25T13:17:41.381Z,53.62
2017-11-25T13:18:53.718Z,53.91
2017-11-25T13:20:06.502Z,53.03
2017-11-25T13:21:19.293Z,54.79
2017-11-25T13:22:32.060Z,55.42
2017-11-25T13:23:44.831Z,55.59
2017-11-25T13:24:57.590Z,56.18
2017-11-25T13:26:10.349Z,55.52
2017-11-25T13:27:23.119Z,55.71
2017-11-25T13:28:35.445Z,55.32
2017-11-25T13:29:48.228Z,55.42
2017-11-25T13:31:01.004Z,55.65
2017-11-25T13:32:13.777Z,53.03
2017-11-25T13:33:26.545Z,52.73
2017-11-25T13:34:38.876Z,54.08
2017-11-25T13:35:51.645Z,55.49
2017-11-25T13:37:03.963Z,55.76
2017-11-25T13:38:16.726Z,56.18
2017-11-25T13:39:29.048Z,56.18
2017-11-25T13:40:41.841Z,56.3
2017-11-25T13:41:54.154Z,55.26
2017-11-25T13:43:06.929Z,54.01
2017-11-25T13:44:19.730Z,53.62
2017-11-25T13:45:32.504Z,53.62
2017-11-25T13:46:45.292Z,53.98
2017-11-25T13:47:58.057Z,52.83
2017-11-25T13:49:10.369Z,53.62
2017-11-25T13:50:23.164Z,53.52
2017-11-25T13:51:35.944Z,55.06
2017-11-25T13:52:48.714Z,56.01
2017-11-25T13:54:01.027Z,56.74
2017-11-25T13:55:13.836Z,55.88
2017-11-25T13:56:26.684Z,55.79
2017-11-25T13:57:39.518Z,55.79
2017-11-25T13:58:52.349Z,55.98
2017-11-25T14:00:05.262Z,56.18
2017-11-25T14:01:18.082Z,56.47
2017-11-25T14:02:29.993Z,55.1
2017-11-25T14:03:42.817Z,55.13
2017-11-25T14:04:55.180Z,55.88
2017-11-25T14:06:07.995Z,54.05
2017-11-25T14:07:20.820Z,53.33
2017-11-25T14:08:33.666Z,52.54
2017-11-25T14:09:46.031Z,51.49
2017-11-25T14:10:59.044Z,49.95
2017-11-25T14:12:11.882Z,50.04
2017-11-25T14:13:24.707Z,49.19
2017-11-25T14:14:37.075Z,48.7
2017-11-25T14:15:49.913Z,48.92
2017-11-25T14:17:01.880Z,48.5
2017-11-25T14:18:14.227Z,47.62
2017-11-25T14:19:27.028Z,47.94
2017-11-25T14:20:39.362Z,48.23
2017-11-25T14:21:51.242Z,47.45
2017-11-25T14:23:04.041Z,48.63
2017-11-25T14:24:16.365Z,47.77
2017-11-25T14:25:29.113Z,48.38
2017-11-25T14:26:41.891Z,45.53
2017-11-25T14:27:54.665Z,44.47
2017-11-25T14:29:07.364Z,45.28
2017-11-25T14:30:20.133Z,43.12
2017-11-25T14:31:32.896Z,43.02
2017-11-25T14:32:45.622Z,43.43
2017-11-25T14:33:58.391Z,44.06
2017-11-25T14:35:10.662Z,45.53
2017-11-25T14:36:23.428Z,45.21
2017-11-25T14:37:36.187Z,45.49
2017-11-25T14:38:48.927Z,46.25
2017-11-25T14:40:01.730Z,46.56
2017-11-25T14:41:14.505Z,45.88
2017-11-25T14:42:27.193Z,46.2
2017-11-25T14:43:39.960Z,45.29
2017-11-25T14:44:52.255Z,45.41
2017-11-25T14:46:04.535Z,46.2
2017-11-25T14:47:17.292Z,45.31
2017-11-25T14:48:30.033Z,45.8
2017-11-25T14:49:42.842Z,46.56
2017-11-25T14:50:55.593Z,46.34
2017-11-25T14:52:07.480Z,47.55
2017-11-25T14:53:20.258Z,47.45
2017-11-25T14:54:32.748Z,46.66
2017-11-25T14:55:45.509Z,46.15
2017-11-25T14:56:58.286Z,45.86
2017-11-25T14:58:11.072Z,47.42
2017-11-25T14:59:23.892Z,46.37
2017-11-25T15:00:36.651Z,46.44
2017-11-25T15:01:49.409Z,47.42
2017-11-25T15:03:02.199Z,47.11
2017-11-25T15:04:14.464Z,47.4
2017-11-25T15:05:27.232Z,46.72
2017-11-25T15:06:39.984Z,47.47
2017-11-25T15:07:52.748Z,47.55
2017-11-25T15:09:05.446Z,47.36
2017-11-25T15:10:18.195Z,47.36
2017-11-25T15:11:30.921Z,47.36
2017-11-25T15:12:43.689Z,48.11
2017-11-25T15:13:56.406Z,47.65
2017-11-25T15:15:08.707Z,47.45
2017-11-25T15:16:21.453Z,47.26
2017-11-25T15:17:34.205Z,46.59
2017-11-25T15:18:46.510Z,46.3
2017-11-25T15:19:58.351Z,46.4
2017-11-25T15:21:11.050Z,46.89
2017-11-25T15:22:23.748Z,47.45
2017-11-25T15:23:36.034Z,47.65
2017-11-25T15:24:48.791Z,46.97
2017-11-25T15:26:01.592Z,46.37
2017-11-25T15:27:13.414Z,46.59
2017-11-25T15:28:26.195Z,44.83
2017-11-25T15:29:38.927Z,45.52
2017-11-25T15:30:51.636Z,46.37
2017-11-25T15:32:04.306Z,46.75
2017-11-25T15:33:16.965Z,46.45
2017-11-25T15:34:29.205Z,48.31
2017-11-25T15:35:41.875Z,47.53
2017-11-25T15:36:54.560Z,47.02
2017-11-25T15:38:06.372Z,46.72